John H Macmillan Jr — WDB9907 — position and weather

sailwx.info

Track history (hours):
 
Tides and Currents Weather Stations Pressure Air Temp Water Temp Dewpoint Dewpoint Depression Visibility Wind Speed Wind Dir Waves Ship Positions

John H Macmillan Jr

Owner: American River Transportation Company, St Louis, MO. More information available from US FCC via Universal Licensing System and Coast Guard Vessel Documentation Center.

Last reported at 2017-Jul-23 10:07 UTC. Time now 2017-Jul-25 06:44 UTC.
Position N 31°51' W 091°19'.

Length 55 m; draft 3.5 m.

Type: Ship (hazmat cat B). MMSI: 366984920.

Date/timePositionNaut miles runAvg speedWind from/ knotsBaromVisibWave heightAir tempDewpointWater temp
2017-Jul-23 10:07N 31°51' W 091°19'1 8.2
2017-Jul-23 09:59N 31°51' W 091°18'14 7.2
2017-Jul-23 08:03N 32°00' W 091°05'1 8.2
2017-Jul-23 07:59N 32°01' W 091°05'6 7.0
2017-Jul-23 07:04N 32°07' W 091°07'0 4.4
2017-Jul-23 07:00N 32°07' W 091°06'1 2.6
2017-Jul-23 06:30N 32°08' W 091°05'4 7.6
2017-Jul-23 06:00N 32°08' W 091°01'4 8.4
2017-Jul-23 05:30N 32°12' W 090°59'4 8.5
2017-Jul-23 05:00N 32°16' W 090°58'4 8.5
2017-Jul-23 04:30N 32°19' W 090°54'2 3.3
2017-Jul-23 04:00N 32°20' W 090°54'4 7.3
2017-Jul-23 03:30N 32°21' W 090°59'4 7.3
2017-Jul-23 03:00N 32°24' W 090°60'5 9.3
2017-Jul-23 02:30N 32°27' W 091°04'7 8.7
2017-Jul-23 01:45N 32°33' W 091°06'2 9.4
2017-Jul-23 01:30N 32°35' W 091°07'10 7.0
2017-Jul-23 00:09N 32°44' W 091°04'1 9.6
2017-Jul-23 00:00N 32°44' W 091°06'  
Track history (hours):
 
Tides and Currents Weather Stations Pressure Air Temp Water Temp Dewpoint Dewpoint Depression Visibility Wind Speed Wind Dir Waves Ship Positions

John H Macmillan Jr

Owner: American River Transportation Company, St Louis, MO. More information available from US FCC via Universal Licensing System and Coast Guard Vessel Documentation Center.

Last reported at 2017-Jul-23 10:07 UTC. Time now 2017-Jul-25 06:44 UTC.
Position N 31°51' W 091°19'.

Length 55 m; draft 3.5 m.

Type: Ship (hazmat cat B). MMSI: 366984920.

Date/timePositionNaut miles runAvg speedWind from/ knotsBaromVisibWave heightAir tempDewpointWater temp
2017-Jul-23 10:07N 31°51' W 091°19'1 8.2
2017-Jul-23 09:59N 31°51' W 091°18'14 7.2
2017-Jul-23 08:03N 32°00' W 091°05'1 8.2
2017-Jul-23 07:59N 32°01' W 091°05'6 7.0
2017-Jul-23 07:04N 32°07' W 091°07'0 4.4
2017-Jul-23 07:00N 32°07' W 091°06'1 2.6
2017-Jul-23 06:30N 32°08' W 091°05'4 7.6
2017-Jul-23 06:00N 32°08' W 091°01'4 8.4
2017-Jul-23 05:30N 32°12' W 090°59'4 8.5
2017-Jul-23 05:00N 32°16' W 090°58'4 8.5
2017-Jul-23 04:30N 32°19' W 090°54'2 3.3
2017-Jul-23 04:00N 32°20' W 090°54'4 7.3
2017-Jul-23 03:30N 32°21' W 090°59'4 7.3
2017-Jul-23 03:00N 32°24' W 090°60'5 9.3
2017-Jul-23 02:30N 32°27' W 091°04'7 8.7
2017-Jul-23 01:45N 32°33' W 091°06'2 9.4
2017-Jul-23 01:30N 32°35' W 091°07'10 7.0
2017-Jul-23 00:09N 32°44' W 091°04'1 9.6
2017-Jul-23 00:00N 32°44' W 091°06'  

Dump ship's entire track history